Latest Coastal Weather Observations for Low Rocky Point

IDT60701

Issued at 4:02 pm EST Friday 29 May 2015 (issued every 10 minutes, with the page automatically refreshed every 10 minutes)

About coastal observations | Map of coastal stations | Coastal observations for TAS | Marine services | Other Formats
Station Details ID: 097080 Name: LOW ROCKY POINT Lat: -42.98 Lon: 145.50 Height: 34.0 m
Data from the previous 72 hours. | See also: Recent months at Low Rocky Point
Date/Time
EST
Temp

°C
Wind Pressure Rain
since 9am
mm
Weather Cloud Vis
km
Sea
Height
m
Swell
Dir
 
Speed
knots
Gust
knots
hPa Trend Height
m
Period
s
Dir
29/04:00pm 11.9 NW 29 38 1010.6 - 0.4 - - - - - - -
29/03:30pm 11.8 NW 31 39 1010.7 - 0.4 - - - - - - -
29/03:03pm 11.8 NW 30 41 1010.7 - 0.4 - - - - - - -
29/03:00pm 11.9 NW 29 35 1010.6 - 0.4 - - - - - - -
29/02:30pm 11.6 NW 30 39 1010.7 - 0.4 - - - - - - -
29/02:00pm 10.8 NW 30 40 1010.9 - 0.4 - - - - - - -
29/01:50pm 11.5 NW 28 38 1010.9 - 0.4 - - - - - - -
29/01:30pm 11.9 NW 30 37 1011.1 - 0.4 - - - - - - -
29/01:14pm 11.7 NW 26 36 1011.2 - 0.4 - - - - - - -
29/01:00pm 11.4 NW 28 35 1011.3 - 0.4 - - - - - - -
29/12:30pm 11.7 NW 26 31 1011.6 - 0.4 - - - - - - -
29/12:00pm 11.5 WNW 30 37 1011.5 - 0.4 - - - - - - -
29/11:30am 9.9 NW 26 38 1012.0 - 0.4 - - - - - - -
29/11:26am 10.8 NW 26 38 1011.9 - 0.4 - - - - - - -
29/11:00am 10.8 NW 29 36 1012.0 - 0.4 Recent precip. - - - - - -
29/10:30am 10.6 NW 27 34 1012.0 - 0.4 - - - - - - -
29/10:10am 9.2 NW 28 38 1012.1 - 0.2 - - - - - - -
29/10:00am 11.1 NW 28 35 1011.3 - 0.0 - - - - - - -
29/09:30am 11.2 NW 26 32 1011.5 - 0.0 - - - - - - -
29/09:00am 10.6 WNW 26 32 1011.3 - 7.0 - - - - - - -
29/08:30am 10.4 WNW 25 31 1011.1 - 7.0 - - - - - - -
29/08:00am 10.2 WNW 27 34 1010.8 - 7.0 - - - - - - -
29/07:30am 10.0 WNW 29 35 1010.3 - 7.0 - - - - - - -
29/07:11am 9.1 WNW 25 37 1010.1 - 7.0 - - - - - - -
29/07:00am 8.8 WNW 30 39 1009.8 - 7.0 - - - - - - -
29/06:46am 10.2 WNW 29 46 1009.4 - 7.0 - - - - - - -
29/06:30am 9.6 WNW 26 34 1009.4 - 7.0 - - - - - - -
29/06:00am 9.5 WNW 27 39 1009.0 - 7.0 - - - - - - -
29/05:59am 9.8 WNW 26 38 1009.1 - 7.0 - - - - - - -
29/05:30am 9.2 WNW 32 39 1009.0 - 7.0 - - - - - - -
29/05:08am 9.9 WNW 29 39 1008.8 - 7.0 - - - - - - -
29/05:00am 9.8 WNW 31 39 1008.7 - 7.0 - - - - - - -
29/04:30am 9.7 WNW 31 38 1008.3 - 7.0 - - - - - - -
29/04:00am 9.7 WNW 32 38 1007.8 - 7.0 - - - - - - -
29/03:38am 9.7 WNW 32 42 1007.4 - 7.0 - - - - - - -
29/03:30am 9.6 WNW 34 41 1007.5 - 7.0 - - - - - - -
29/03:00am 9.0 WNW 33 43 1006.9 - 7.0 Recent precip. - - - - - -
29/02:30am 8.8 WNW 34 44 1006.5 - 7.0 - - - - - - -
29/02:17am 8.0 WNW 29 50 1006.5 - 7.0 - - - - - - -
29/02:16am 8.0 WNW 28 50 1006.4 - 7.0 - - - - - - -
29/02:09am 7.9 WNW 29 38 1006.8 - 7.0 - - - - - - -
29/02:03am 7.9 WNW 30 43 1006.6 - 6.8 - - - - - - -
29/02:00am 8.6 WNW 29 43 1006.1 - 6.8 Rain - - - - - -
29/01:47am 8.0 WNW 32 42 1006.3 - 6.6 - - - - - - -
29/01:30am 9.0 W 32 39 1006.3 - 6.6 - - - - - - -
29/01:24am 8.9 W 32 42 1006.2 - 6.6 - - - - - - -
29/01:00am 9.6 WNW 34 42 1005.9 - 6.6 - - - - - - -
29/12:30am 9.2 WNW 37 47 1005.6 - 6.6 - - - - - - -
29/12:00am 8.8 WNW 32 42 1005.5 - 6.6 Recent precip. - - - - - -
 
Date/Time
EST
Temp

°C
Wind Pressure Rain
since 9am
mm
Weather Cloud Vis
km
Sea
Height
m
Swell
Dir
 
Speed
knots
Gust
knots
hPa Trend Height
m
Period
s
Dir
28/11:35pm 8.4 WNW 30 41 1005.7 - 6.4 - - - - - - -
28/11:30pm 8.4 WNW 29 35 1005.5 - 6.2 - - - - - - -
28/11:15pm 9.4 WNW 30 41 1005.4 - 6.0 - - - - - - -
28/11:00pm 9.6 WNW 31 37 1005.7 - 6.0 - - - - - - -
28/10:30pm 10.1 NW 29 38 1005.7 - 6.0 - - - - - - -
28/10:00pm 10.4 WNW 33 45 1005.2 - 6.0 - - - - - - -
28/09:30pm 10.7 WNW 33 43 1005.1 - 6.0 - - - - - - -
28/09:00pm 10.5 NW 30 41 1004.7 - 6.0 Recent precip. - - - - - -
28/08:46pm 10.2 NW 27 38 1004.7 - 6.0 - - - - - - -
28/08:30pm 9.7 NW 25 32 1004.8 - 6.0 - - - - - - -
28/08:00pm 8.8 WNW 33 51 1005.4 - 5.8 Rain - - - - - -
28/07:57pm 8.8 WNW 33 51 1005.1 - 5.8 - - - - - - -
28/07:56pm 9.0 WNW 32 51 1004.9 - 5.6 - - - - - - -
28/07:54pm 11.0 WNW 29 43 1004.8 - 5.6 - - - - - - -
28/07:30pm 11.0 WNW 30 37 1004.6 - 5.6 - - - - - - -
28/07:00pm 11.2 WNW 31 37 1004.6 - 5.6 - - - - - - -
28/06:54pm 11.2 WNW 33 43 1004.5 - 5.6 - - - - - - -
28/06:30pm 11.3 WNW 30 38 1004.3 - 5.6 - - - - - - -
28/06:00pm 10.7 WNW 32 42 1004.2 - 5.6 Recent precip. - - - - - -
28/05:44pm 10.4 WNW 35 45 1004.0 - 5.6 - - - - - - -
28/05:30pm 10.6 WNW 32 39 1004.0 - 5.6 - - - - - - -
28/05:11pm 10.0 WNW 31 41 1003.9 - 5.2 - - - - - - -
28/05:00pm 9.9 WNW 32 41 1003.7 - 5.0 Rain - - - - - -
28/04:51pm 11.2 NW 30 40 1003.5 - 4.4 - - - - - - -
28/04:30pm 10.8 NW 29 36 1003.6 - 4.4 - - - - - - -
28/04:12pm 10.5 NW 32 42 1003.4 - 4.4 - - - - - - -
28/04:00pm 10.3 NW 31 38 1003.6 - 4.4 Recent precip. - - - - - -
28/03:30pm 9.9 NW 31 39 1003.6 - 4.4 - - - - - - -
28/03:00pm 10.0 NW 29 40 1003.8 - 3.8 Recent precip. - - - - - -
28/02:37pm 10.0 WNW 30 40 1003.7 - 3.2 - - - - - - -
28/02:30pm 10.2 WNW 28 36 1003.7 - 3.0 - - - - - - -
28/02:00pm 9.8 WNW 28 34 1003.9 - 2.0 Rain - - - - - -
28/01:30pm 10.6 NW 31 37 1003.6 - 0.4 - - - - - - -
28/01:00pm 11.8 WNW 30 37 1003.5 - 0.2 Recent precip. - - - - - -
28/12:30pm 11.2 NW 26 33 1004.1 - 0.2 - - - - - - -
28/12:02pm 12.2 NW 29 39 1004.2 - 0.0 - - - - - - -
28/12:00pm 12.2 NW 31 39 1004.2 - 0.0 - - - - - - -
28/11:36am 13.9 NW 31 41 1004.5 - 0.0 - - - - - - -
28/11:30am 14.3 NW 34 41 1004.6 - 0.0 - - - - - - -
28/11:07am 13.8 NNW 26 36 1005.0 - 0.0 - - - - - - -
28/11:00am 14.2 NNW 27 35 1005.2 - 0.0 - - - - - - -
28/10:30am 14.4 NNW 31 41 1005.3 - 0.0 - - - - - - -
28/10:00am 14.3 NNW 28 38 1005.4 - 0.0 - - - - - - -
28/09:36am 13.9 NNW 29 41 1005.7 - 0.0 - - - - - - -
28/09:30am 13.7 NNW 30 38 1005.8 - 0.0 - - - - - - -
28/09:27am 13.7 NNW 31 41 1005.9 - 0.0 - - - - - - -
28/09:18am 13.7 NNW 29 41 1006.0 - 0.0 - - - - - - -
28/09:04am 13.5 NNW 23 33 1006.3 - 0.0 - - - - - - -
28/09:00am 13.3 NNW 24 33 1006.3 - 5.8 - - - - - - -
28/08:30am 13.0 NNW 23 35 1006.6 - 5.8 - - - - - - -
28/08:23am 12.9 NNW 20 30 1006.8 - 5.8 - - - - - - -
28/08:00am 12.4 NNW 18 24 1006.9 - 5.8 - - - - - - -
28/07:30am 11.7 N 15 20 1007.0 - 5.8 - - - - - - -
28/07:06am 13.1 NNW 28 38 1007.1 - 5.8 - - - - - - -
28/07:00am 13.4 NNW 29 38 1006.9 - 5.8 - - - - - - -
28/06:33am 13.3 NW 32 42 1007.1 - 5.8 - - - - - - -
28/06:30am 13.4 NW 33 42 1007.3 - 5.8 - - - - - - -
28/06:23am 13.1 NW 31 41 1007.1 - 5.8 - - - - - - -
28/06:02am 12.7 NNW 23 37 1007.1 - 5.8 - - - - - - -
28/06:00am 12.4 NNW 20 31 1007.2 - 5.8 - - - - - - -
28/05:48am 11.7 NNW 19 29 1007.1 - 5.8 - - - - - - -
28/05:30am 11.3 NNW 19 27 1007.3 - 5.8 - - - - - - -
28/05:00am 10.9 N 16 24 1007.3 - 5.8 Recent precip. - - - - - -
28/04:40am 11.0 N 16 26 1007.5 - 5.8 - - - - - - -
28/04:30am 11.0 N 16 25 1007.7 - 5.8 - - - - - - -
28/04:22am 11.1 N 15 25 1007.8 - 5.8 - - - - - - -
28/04:00am 10.8 N 15 22 1008.0 - 5.6 - - - - - - -
28/03:30am 11.6 NNW 17 24 1008.1 - 5.6 - - - - - - -
28/03:07am 12.1 NNW 21 31 1008.6 - 5.6 - - - - - - -
28/03:00am 12.4 NNW 25 31 1008.4 - 5.6 - - - - - - -
28/02:30am 12.5 NW 25 34 1008.9 - 5.6 - - - - - - -
28/02:02am 12.3 NNW 19 31 1009.2 - 5.6 - - - - - - -
28/02:00am 12.2 NNW 17 23 1009.2 - 5.6 - - - - - - -
28/01:42am 12.8 NNW 23 33 1009.3 - 5.6 - - - - - - -
28/01:30am 12.7 NNW 25 31 1009.2 - 5.6 - - - - - - -
28/01:00am 12.6 NNW 27 33 1009.2 - 5.6 Recent precip. - - - - - -
28/12:38am 12.4 NNW 27 37 1009.6 - 5.4 - - - - - - -
28/12:30am 12.3 NNW 26 33 1009.7 - 5.4 - - - - - - -
28/12:00am 11.2 NNW 25 37 1010.2 - 5.4 Recent precip. - - - - - -
 
Date/Time
EST
Temp

°C
Wind Pressure Rain
since 9am
mm
Weather Cloud Vis
km
Sea
Height
m
Swell
Dir
 
Speed
knots
Gust
knots
hPa Trend Height
m
Period
s
Dir
27/11:50pm 11.5 NW 29 41 1010.6 - 5.4 - - - - - - -
27/11:30pm 13.1 NW 30 35 1010.5 - 5.2 - - - - - - -
27/11:00pm 13.1 NW 30 37 1010.4 - 5.2 - - - - - - -
27/10:30pm 12.7 NW 27 34 1010.8 - 5.2 - - - - - - -
27/10:23pm 12.7 NW 28 34 1010.8 - 5.2 - - - - - - -
27/10:04pm 12.1 NNW 19 29 1011.0 - 5.2 - - - - - - -
27/10:00pm 12.4 NNW 23 30 1010.9 - 5.2 - - - - - - -
27/09:32pm 12.5 NNW 18 28 1010.9 - 5.2 - - - - - - -
27/09:30pm 12.7 NNW 17 24 1011.0 - 5.2 - - - - - - -
27/09:10pm 12.3 NNW 16 26 1011.0 - 5.2 - - - - - - -
27/09:00pm 12.4 NNW 15 20 1011.0 - 5.2 - - - - - - -
27/08:30pm 12.4 NNW 20 27 1011.1 - 5.2 - - - - - - -
27/08:03pm 12.1 NNW 17 27 1011.1 - 5.2 - - - - - - -
27/08:00pm 12.3 NNW 19 27 1010.9 - 5.2 Recent precip. - - - - - -
27/07:30pm 12.2 NW 19 25 1010.7 - 5.2 - - - - - - -
27/07:00pm 11.8 NW 22 26 1010.6 - 5.0 Rain - - - - - -
27/06:30pm 11.8 NW 19 25 1010.3 - 2.0 - - - - - - -
27/06:00pm 13.0 NNW 18 27 1009.8 - 1.4 Recent precip. - - - - - -
27/05:30pm 12.9 N 15 22 1009.8 - 1.2 - - - - - - -
27/05:00pm 13.2 N 15 21 1009.8 - 1.0 - - - - - - -
27/04:30pm 13.5 N 15 24 1010.2 - 1.0 - - - - - - -
27/04:00pm 13.5 NNW 18 28 1010.3 - 1.0 - - - - - - -
27/03:53pm 13.8 NNW 18 28 1010.6 - 1.0 - - - - - - -
27/03:30pm 13.9 NNW 17 24 1010.7 - 1.0 - - - - - - -
27/03:00pm 13.9 NNW 17 25 1010.7 - 1.0 - - - - - - -
27/02:30pm 13.7 NNW 18 30 1010.9 - 1.0 - - - - - - -
27/02:25pm 14.0 NNW 19 30 1010.9 - 1.0 - - - - - - -
27/02:00pm 13.2 NNW 18 25 1011.1 - 1.0 Recent precip. - - - - - -
27/01:32pm 12.8 NNW 19 29 1011.6 - 0.8 - - - - - - -
27/01:30pm 12.8 NNW 20 29 1011.6 - 0.8 - - - - - - -
27/01:00pm 13.1 NNW 18 28 1011.9 - 0.4 Recent precip. - - - - - -
27/12:58pm 13.2 NNW 18 28 1012.0 - 0.4 - - - - - - -
27/12:30pm 13.1 NNW 17 23 1012.4 - 0.4 - - - - - - -
27/12:00pm 13.3 NNW 22 35 1012.7 - 0.0 - - - - - - -
27/11:30am 14.2 NNW 17 28 1013.3 - 0.0 - - - - - - -
27/11:05am 14.1 N 18 28 1013.5 - 0.0 - - - - - - -
27/11:00am 14.0 N 20 28 1013.5 - 0.0 - - - - - - -
27/10:38am 14.0 NNW 20 31 1013.9 - 0.0 - - - - - - -
27/10:30am 13.9 NNW 18 23 1014.1 - 0.0 - - - - - - -
27/10:02am 13.7 N 19 29 1013.8 - 0.0 - - - - - - -
27/10:00am 13.7 N 19 26 1013.7 - 0.0 - - - - - - -
27/09:40am 13.4 N 16 27 1014.1 - 0.0 - - - - - - -
27/09:30am 13.3 N 17 24 1014.2 - 0.0 - - - - - - -
27/09:00am 12.5 N 15 21 1014.6 - 0.0 - - - - - - -
27/08:30am 10.8 NNE 12 16 1014.9 - 0.0 - - - - - - -
27/08:00am 10.3 NNE 14 19 1014.8 - 0.0 - - - - - - -
27/07:30am 9.9 NNE 14 18 1015.0 - 0.0 - - - - - - -
27/07:00am 9.6 NNE 13 19 1015.3 - 0.0 - - - - - - -
27/06:30am 9.4 NNE 15 18 1015.4 - 0.0 - - - - - - -
27/06:00am 9.0 NE 12 15 1015.6 - 0.0 - - - - - - -
27/05:30am 9.1 NNE 14 18 1016.5 - 0.0 - - - - - - -
27/05:00am 8.4 N 7 10 1017.2 - 0.0 - - - - - - -
27/04:30am 8.7 NNE 11 15 1017.6 - 0.0 - - - - - - -
27/04:00am 8.4 NNE 12 14 1017.8 - 0.0 - - - - - - -
27/03:30am 8.3 NNE 12 15 1018.4 - 0.0 - - - - - - -
27/03:00am 8.2 NNE 12 15 1019.0 - 0.0 - - - - - - -
27/02:30am 8.3 NNE 12 15 1019.5 - 0.0 - - - - - - -
27/02:00am 8.4 NNE 12 15 1019.8 - 0.0 - - - - - - -
27/01:30am 8.4 NNE 12 15 1020.1 - 0.0 - - - - - - -
27/01:00am 8.4 NNE 12 15 1020.5 - 0.0 - - - - - - -
27/12:30am 8.4 NE 11 13 1020.8 - 0.0 - - - - - - -
27/12:00am 9.0 NE 12 15 1021.2 - 0.0 - - - - - - -
 
Date/Time
EST
Temp

°C
Wind Pressure Rain
since 9am
mm
Weather Cloud Vis
km
Sea
Height
m
Swell
Dir
 
Speed
knots
Gust
knots
hPa Trend Height
m
Period
s
Dir
26/11:30pm 9.0 NNE 12 13 1021.5 - 0.0 - - - - - - -
26/11:00pm 9.2 NNE 11 13 1021.8 - 0.0 - - - - - - -
26/10:30pm 9.1 NE 11 14 1022.2 - 0.0 - - - - - - -
26/10:00pm 9.4 NE 12 14 1022.6 - 0.0 - - - - - - -
26/09:30pm 10.5 NNE 11 13 1023.0 - 0.0 - - - - - - -
26/09:00pm 9.7 NE 10 11 1023.2 - 0.0 - - - - - - -
26/08:30pm 9.9 NE 10 12 1023.4 - 0.0 - - - - - - -
26/08:00pm 10.6 NE 10 12 1023.6 - 0.0 - - - - - - -
26/07:30pm 10.7 NE 9 11 1023.9 - 0.0 - - - - - - -
26/07:00pm 10.8 NE 8 9 1024.1 - 0.0 - - - - - - -
26/06:30pm 10.7 NE 8 9 1024.2 - 0.0 - - - - - - -
26/06:00pm 10.8 NE 4 5 1024.2 - 0.0 - - - - - - -
26/05:30pm 11.3 NNW 3 3 1024.4 - 0.0 - - - - - - -
26/05:00pm 11.4 N 4 5 1024.5 - 0.0 - - - - - - -
26/04:30pm 12.3 NNW 3 5 1024.5 - 0.0 - - - - - - -

Other Formats:

Comma delimited format used in spreadsheet applications
http://www.bom.gov.au/fwo/IDT60701/IDT60701.95961.axf

JavaScript Object Notation format (JSON) in row-major order
http://www.bom.gov.au/fwo/IDT60701/IDT60701.95961.json